Time;durP1;ratioP1;P1;durP2;ratioP2;P2;SDS_P1;SDS_P2;PMS_P1;PMS_P2;Temp;Humidity;BMP_temperature;BMP_pressure;BME280_temperature;BME280_humidity;BME280_pressure;Samples;Min_cycle;Max_cycle;Signal;HPM_P1;HPM_P2
2021/12/06 00:02:10;;;;;;;36.20;14.77;;;;;;;1.30;100.00;97585.72;4485150;32;20084;-73
2021/12/06 00:04:38;;;;;;;34.08;12.90;;;;;;;1.15;100.00;97587.66;4485998;32;20127;-74
2021/12/06 00:07:09;;;;;;;37.70;14.98;;;;;;;1.21;100.00;97592.37;4485656;31;20088;-74
2021/12/06 00:09:36;;;;;;;34.53;13.60;;;;;;;1.36;100.00;97597.38;4485988;32;20141;-73
2021/12/06 00:12:04;;;;;;;33.30;13.88;;;;;;;1.32;100.00;97606.28;4485441;31;20111;-74
2021/12/06 00:14:35;;;;;;;36.95;13.30;;;;;;;1.39;100.00;97605.75;4485839;31;20100;-74
2021/12/06 00:17:05;;;;;;;38.25;14.95;;;;;;;1.37;100.00;97606.78;4485484;31;20227;-74
2021/12/06 00:19:34;;;;;;;40.25;12.77;;;;;;;1.37;100.00;97611.94;4485710;31;20115;-74
2021/12/06 00:22:05;;;;;;;36.40;14.55;;;;;;;1.37;100.00;97601.63;4490586;31;20100;-74
2021/12/06 00:24:32;;;;;;;36.38;14.15;;;;;;;1.39;100.00;97594.56;4501508;31;20080;-74
2021/12/06 00:27:00;;;;;;;36.65;13.52;;;;;;;1.39;100.00;97595.44;4501532;31;20453;-73
2021/12/06 00:29:27;;;;;;;37.90;13.25;;;;;;;1.50;100.00;97592.06;4489355;31;20100;-74
2021/12/06 00:31:54;;;;;;;39.42;14.35;;;;;;;1.37;100.00;97599.03;4485485;32;20401;-74
2021/12/06 00:34:24;;;;;;;33.47;12.75;;;;;;;1.34;100.00;97599.25;4485703;31;20460;-74
2021/12/06 00:37:05;;;;;;;33.63;12.35;;;;;;;1.47;100.00;97607.78;4485486;31;20100;-74
2021/12/06 00:39:33;;;;;;;36.88;13.70;;;;;;;1.57;100.00;97620.84;4485635;31;20104;-74
2021/12/06 00:42:03;;;;;;;38.67;12.70;;;;;;;1.44;100.00;97610.59;4485576;31;20084;-74
2021/12/06 00:44:30;;;;;;;30.30;11.68;;;;;;;1.47;100.00;97594.03;4485561;31;20480;-74
2021/12/06 00:46:58;;;;;;;37.03;13.82;;;;;;;1.56;100.00;97604.53;4485418;32;20149;-74
2021/12/06 00:49:25;;;;;;;35.00;13.27;;;;;;;1.58;100.00;97617.34;4485375;32;20093;-74
2021/12/06 00:51:52;;;;;;;32.03;12.63;;;;;;;1.47;100.00;97630.16;4485643;31;20503;-74
2021/12/06 00:54:20;;;;;;;37.47;12.73;;;;;;;1.49;100.00;97636.06;4485432;31;20112;-74
2021/12/06 00:56:47;;;;;;;31.27;13.52;;;;;;;1.57;100.00;97621.66;4485830;31;20157;-74
2021/12/06 00:59:14;;;;;;;33.45;12.13;;;;;;;1.64;100.00;97626.41;4485699;31;20126;-74
2021/12/06 01:01:42;;;;;;;29.58;12.35;;;;;;;1.58;100.00;97620.72;4485466;32;20575;-74
2021/12/06 01:04:09;;;;;;;28.33;11.18;;;;;;;1.62;100.00;97631.69;4485465;31;20095;-74
2021/12/06 01:06:36;;;;;;;24.73;11.90;;;;;;;1.60;100.00;97641.28;4485504;32;20100;-74
2021/12/06 01:09:04;;;;;;;30.62;12.18;;;;;;;1.75;100.00;97626.47;4485338;31;20104;-74
2021/12/06 01:11:31;;;;;;;35.63;12.88;;;;;;;1.74;100.00;97605.00;4484845;32;20118;-74
2021/12/06 01:13:58;;;;;;;30.90;11.98;;;;;;;1.72;100.00;97599.09;4484720;31;20448;-74
2021/12/06 01:16:26;;;;;;;25.73;10.63;;;;;;;1.66;100.00;97604.69;4485536;32;20091;-74
2021/12/06 01:18:53;;;;;;;26.85;10.75;;;;;;;1.64;100.00;97596.25;4485066;32;20165;-74
2021/12/06 01:21:27;;;;;;;25.20;10.57;;;;;;;1.68;100.00;97604.59;4486174;31;20092;-74
2021/12/06 01:24:00;;;;;;;31.55;11.98;;;;;;;1.71;100.00;97612.09;4500893;31;20560;-74
2021/12/06 01:31:57;;;;;;;120.65;15.88;;;;;;;1.70;100.00;97613.88;4485354;32;20112;-73
2021/12/06 01:39:57;;;;;;;81.03;14.90;;;;;;;1.24;100.00;97611.97;4485478;31;20092;-74
2021/12/06 01:42:25;;;;;;;149.20;14.68;;;;;;;1.03;100.00;97627.16;4485412;31;20426;-74
2021/12/06 01:44:57;;;;;;;80.18;11.93;;;;;;;0.79;100.00;97612.47;4485252;31;20097;-73
2021/12/06 01:47:30;;;;;;;42.55;10.70;;;;;;;0.63;100.00;97609.28;4484299;32;20115;-73
2021/12/06 01:50:19;;;;;;;58.38;11.48;;;;;;;0.72;100.00;97615.56;4485198;31;20092;-73
2021/12/06 01:52:49;;;;;;;41.17;11.73;;;;;;;0.66;100.00;97609.06;4485141;31;20084;-73
2021/12/06 01:55:20;;;;;;;23.00;10.60;;;;;;;0.51;100.00;97603.19;4485093;31;20092;-73
2021/12/06 01:57:47;;;;;;;23.23;9.93;;;;;;;0.47;100.00;97618.03;4485316;31;20080;-73
2021/12/06 02:00:23;;;;;;;19.83;9.38;;;;;;;0.60;100.00;97630.09;4484911;31;20477;-73
2021/12/06 02:02:52;;;;;;;23.40;9.85;;;;;;;0.76;100.00;97624.72;4485012;31;20151;-73
2021/12/06 02:05:20;;;;;;;24.08;10.25;;;;;;;0.53;100.00;97617.63;4485306;31;20119;-73
2021/12/06 02:07:48;;;;;;;19.50;10.35;;;;;;;0.69;100.00;97611.44;4485461;31;20084;-73
2021/12/06 02:10:15;;;;;;;26.27;10.73;;;;;;;0.66;100.00;97606.47;4485081;31;20135;-73
2021/12/06 02:12:45;;;;;;;23.77;9.57;;;;;;;0.76;100.00;97612.66;4485119;31;20092;-74
2021/12/06 02:15:38;;;;;;;19.40;8.98;;;;;;;0.82;100.00;97609.66;4485013;31;20153;-74
2021/12/06 02:18:11;;;;;;;18.02;8.52;;;;;;;0.94;100.00;97602.00;4485083;31;20133;-74
2021/12/06 02:20:49;;;;;;;18.60;8.57;;;;;;;0.74;100.00;97598.22;4485075;31;20081;-74
2021/12/06 02:23:18;;;;;;;17.65;8.13;;;;;;;0.78;100.00;97599.69;4497858;31;20087;-74
2021/12/06 02:25:45;;;;;;;16.27;7.30;;;;;;;0.92;100.00;97598.72;4500631;31;20151;-73
2021/12/06 02:28:12;;;;;;;15.25;8.57;;;;;;;0.85;100.00;97606.88;4496855;31;20092;-73
2021/12/06 02:30:40;;;;;;;16.02;7.70;;;;;;;0.88;100.00;97606.66;4484996;31;20101;-74
2021/12/06 02:33:07;;;;;;;19.08;8.85;;;;;;;0.91;100.00;97605.66;4482292;31;74017;-74
2021/12/06 02:35:35;;;;;;;19.10;8.23;;;;;;;0.77;100.00;97603.19;4484761;31;20438;-74
2021/12/06 02:38:07;;;;;;;18.90;9.13;;;;;;;0.62;100.00;97605.03;4484930;31;20104;-74
2021/12/06 02:40:37;;;;;;;14.73;8.23;;;;;;;0.45;100.00;97601.03;4484845;31;20496;-74
2021/12/06 02:43:06;;;;;;;13.73;7.03;;;;;;;0.51;100.00;97609.16;4484918;31;20093;-74
2021/12/06 02:45:33;;;;;;;15.50;6.95;;;;;;;0.44;100.00;97601.94;4484465;31;20446;-74
2021/12/06 02:48:03;;;;;;;11.75;5.87;;;;;;;0.43;100.00;97597.72;4484460;31;20111;-74
2021/12/06 02:50:37;;;;;;;17.70;6.60;;;;;;;0.33;100.00;97600.94;4484608;32;20085;-74
2021/12/06 02:53:04;;;;;;;13.50;6.97;;;;;;;0.48;100.00;97609.34;4484326;31;20088;-74
2021/12/06 02:55:36;;;;;;;15.48;7.25;;;;;;;0.48;100.00;97609.34;4484528;31;20080;-74
2021/12/06 02:58:21;;;;;;;10.85;5.45;;;;;;;0.39;100.00;97614.31;4484491;31;20100;-74
2021/12/06 03:00:53;;;;;;;15.52;7.35;;;;;;;0.37;100.00;97611.84;4484423;31;20092;-74
2021/12/06 03:03:22;;;;;;;14.52;6.30;;;;;;;0.52;100.00;97615.97;4484366;31;20581;-74
2021/12/06 03:05:51;;;;;;;15.27;7.78;;;;;;;0.43;100.00;97626.88;4482864;32;20149;-74
2021/12/06 03:08:40;;;;;;;14.18;6.87;;;;;;;0.41;100.00;97628.75;4484522;31;20088;-74
2021/12/06 03:11:15;;;;;;;14.52;6.55;;;;;;;0.52;100.00;97626.28;4484351;31;20766;-74
2021/12/06 03:13:42;;;;;;;15.10;6.85;;;;;;;0.48;100.00;97624.81;4484212;31;20084;-74
2021/12/06 03:16:10;;;;;;;13.50;6.30;;;;;;;0.63;100.00;97614.44;4484346;31;20101;-74
2021/12/06 03:18:42;;;;;;;14.73;6.93;;;;;;;0.57;100.00;97612.25;4484121;31;20144;-74
2021/12/06 03:21:10;;;;;;;18.27;8.02;;;;;;;0.52;100.00;97615.97;4483935;31;20104;-74
2021/12/06 03:23:38;;;;;;;10.13;4.55;;;;;;;0.43;100.00;97623.50;4499580;31;20191;-74
2021/12/06 03:26:06;;;;;;;15.25;7.78;;;;;;;0.46;100.00;97625.88;4499773;31;20548;-74
2021/12/06 03:28:37;;;;;;;20.08;8.73;;;;;;;0.48;100.00;97624.81;4493897;31;20520;-73
2021/12/06 03:31:06;;;;;;;15.32;7.22;;;;;;;0.51;100.00;97623.78;4483909;31;20096;-73
2021/12/06 03:33:36;;;;;;;18.87;8.20;;;;;;;0.51;100.00;97628.94;4483904;31;20096;-73
2021/12/06 03:36:05;;;;;;;15.05;6.45;;;;;;;0.44;100.00;97632.84;4484933;31;20444;-73
2021/12/06 03:38:34;;;;;;;15.93;6.87;;;;;;;0.32;100.00;97635.31;4486335;31;20184;-73
2021/12/06 03:41:03;;;;;;;12.95;6.18;;;;;;;0.42;100.00;97640.69;4486000;31;20100;-73
2021/12/06 03:43:31;;;;;;;13.43;6.90;;;;;;;0.41;100.00;97648.50;4486097;31;20149;-74
2021/12/06 03:46:00;;;;;;;14.35;7.62;;;;;;;0.45;100.00;97645.63;4485899;31;20147;-74
2021/12/06 03:48:28;;;;;;;13.32;6.82;;;;;;;0.37;100.00;97641.94;4486163;31;20096;-74
2021/12/06 03:50:55;;;;;;;12.55;6.20;;;;;;;0.44;100.00;97628.53;4485790;31;20103;-74
2021/12/06 03:53:23;;;;;;;12.40;6.47;;;;;;;0.47;100.00;97628.34;4486200;31;20100;-74
2021/12/06 03:55:50;;;;;;;10.52;5.25;;;;;;;0.41;100.00;97633.91;4485845;31;20092;-74
2021/12/06 03:58:17;;;;;;;13.38;6.87;;;;;;;0.40;100.00;97636.59;4486183;31;20123;-74
2021/12/06 04:00:46;;;;;;;13.95;6.50;;;;;;;0.25;100.00;97630.69;4486129;31;20416;-74
2021/12/06 04:03:16;;;;;;;13.52;6.75;;;;;;;0.31;100.00;97625.13;4486110;31;20093;-74
2021/12/06 04:05:44;;;;;;;12.65;6.78;;;;;;;0.33;100.00;97634.41;4486058;31;20096;-74
2021/12/06 04:08:11;;;;;;;12.63;6.07;;;;;;;0.30;100.00;97631.19;4484801;32;20091;-74
2021/12/06 04:10:39;;;;;;;11.32;5.93;;;;;;;0.35;100.00;97629.16;4485844;31;20566;-74
2021/12/06 04:13:06;;;;;;;14.80;7.78;;;;;;;0.24;100.00;97616.97;4486085;31;20100;-74
2021/12/06 04:15:36;;;;;;;10.98;5.68;;;;;;;0.26;100.00;97620.28;4485900;31;20170;-74
2021/12/06 04:18:04;;;;;;;12.90;6.57;;;;;;;0.15;100.00;97628.72;4485987;31;20537;-74
2021/12/06 04:20:32;;;;;;;15.07;6.72;;;;;;;0.29;100.00;97632.97;4485474;32;20601;-74
2021/12/06 04:23:02;;;;;;;10.75;6.12;;;;;;;0.32;100.00;97637.91;4497412;31;20104;-74
2021/12/06 04:25:29;;;;;;;13.62;6.57;;;;;;;0.24;100.00;97642.72;4501430;31;20115;-74
2021/12/06 04:28:00;;;;;;;18.08;7.78;;;;;;;0.18;100.00;97635.38;4499349;31;20107;-74
2021/12/06 04:30:27;;;;;;;15.13;6.72;;;;;;;0.01;100.00;97644.22;4485595;31;20092;-74
2021/12/06 04:32:55;;;;;;;14.20;6.95;;;;;;;-0.01;100.00;97635.78;4485853;31;20815;-74
2021/12/06 04:35:23;;;;;;;14.73;6.97;;;;;;;0.04;100.00;97638.87;4485745;31;20183;-74
2021/12/06 04:37:50;;;;;;;16.73;6.90;;;;;;;0.04;100.00;97644.03;4485751;31;20097;-74
2021/12/06 04:40:18;;;;;;;14.40;7.57;;;;;;;0.00;100.00;97650.31;4485578;31;20145;-74
2021/12/06 04:42:46;;;;;;;15.50;7.32;;;;;;;0.03;100.00;97633.81;4485950;31;20197;-74
2021/12/06 04:45:14;;;;;;;14.02;7.00;;;;;;;-0.03;100.00;97635.03;4485943;31;20139;-74
2021/12/06 04:47:42;;;;;;;13.50;6.87;;;;;;;0.01;100.00;97636.50;4485597;31;20457;-74
2021/12/06 04:50:11;;;;;;;11.30;5.65;;;;;;;-0.03;100.00;97660.78;4485732;31;20183;-74
2021/12/06 04:52:40;;;;;;;16.50;7.85;;;;;;;-0.05;100.00;97655.72;4485742;31;20096;-74
2021/12/06 04:55:20;;;;;;;19.87;7.72;;;;;;;-0.11;100.00;97650.97;4485824;31;20476;-74
2021/12/06 04:57:47;;;;;;;19.67;9.50;;;;;;;-0.12;100.00;97656.22;4485705;31;20406;-74
2021/12/06 05:00:19;;;;;;;14.52;6.57;;;;;;;-0.13;100.00;97649.44;4485468;31;20127;-74
2021/12/06 05:02:47;;;;;;;22.85;9.32;;;;;;;-0.14;100.00;97653.75;4488302;31;20626;-74
2021/12/06 05:05:22;;;;;;;17.98;8.05;;;;;;;-0.15;100.00;97659.84;4500215;31;20104;-74
2021/12/06 05:07:56;;;;;;;20.58;8.73;;;;;;;-0.10;100.00;97664.69;4491449;31;20096;-74
2021/12/06 05:10:24;;;;;;;19.70;9.70;;;;;;;-0.06;100.00;97671.28;4488469;31;20100;-74
2021/12/06 05:12:53;;;;;;;21.17;10.00;;;;;;;-0.07;100.00;97669.63;4491832;31;20122;-74
2021/12/06 05:15:20;;;;;;;23.70;10.25;;;;;;;-0.03;100.00;97673.66;4485610;31;20126;-74
2021/12/06 05:17:48;;;;;;;19.00;8.77;;;;;;;0.04;100.00;97680.06;4500256;31;20100;-74
2021/12/06 05:20:16;;;;;;;18.30;7.95;;;;;;;-0.05;100.00;97678.09;4501283;31;20744;-74
2021/12/06 05:22:46;;;;;;;18.95;7.85;;;;;;;-0.03;100.00;97686.53;4491455;31;20088;-74
2021/12/06 05:25:14;;;;;;;15.98;7.47;;;;;;;-0.05;100.00;97685.81;4485396;31;20126;-74
2021/12/06 05:27:42;;;;;;;29.58;9.90;;;;;;;0.01;100.00;97687.16;4485726;31;20160;-74
2021/12/06 05:30:11;;;;;;;22.23;8.00;;;;;;;-0.04;100.00;97696.00;4496938;31;20096;-74
2021/12/06 05:32:41;;;;;;;18.55;8.23;;;;;;;0.09;100.00;97693.50;4492408;31;20091;-74
2021/12/06 05:35:09;;;;;;;22.55;8.93;;;;;;;0.06;100.00;97687.69;4498305;31;20469;-75
2021/12/06 05:37:46;;;;;;;17.15;7.53;;;;;;;0.10;100.00;97684.81;4492397;31;20151;-75
2021/12/06 05:40:18;;;;;;;17.77;8.13;;;;;;;0.19;100.00;97685.16;4494898;31;20120;-74
2021/12/06 05:42:46;;;;;;;19.10;7.72;;;;;;;0.28;100.00;97687.16;4490264;31;20123;-74
2021/12/06 05:45:16;;;;;;;16.85;7.35;;;;;;;0.41;100.00;97687.16;4485184;31;20182;-75
2021/12/06 05:47:44;;;;;;;15.02;6.68;;;;;;;0.45;100.00;97694.59;4485011;31;20077;-74
2021/12/06 05:50:12;;;;;;;16.77;7.87;;;;;;;0.53;100.00;97694.94;4487806;31;20138;-75
2021/12/06 05:52:39;;;;;;;17.35;7.37;;;;;;;0.40;100.00;97693.25;4486471;31;20096;-75
2021/12/06 05:55:08;;;;;;;19.02;8.35;;;;;;;0.40;100.00;97688.09;4493686;31;20092;-75
2021/12/06 05:57:42;;;;;;;17.42;7.00;;;;;;;0.44;100.00;97690.38;4494309;31;20712;-75
2021/12/06 06:00:12;;;;;;;24.12;10.05;;;;;;;0.28;100.00;97711.16;4494461;31;20477;-74
2021/12/06 06:02:41;;;;;;;22.40;10.18;;;;;;;0.28;100.00;97715.47;4499362;31;20126;-74
2021/12/06 06:05:09;;;;;;;21.35;9.07;;;;;;;0.43;100.00;97718.81;4494125;31;20156;-74
2021/12/06 06:07:36;;;;;;;26.42;10.95;;;;;;;0.29;100.00;97723.09;4493642;31;20096;-75
2021/12/06 06:10:05;;;;;;;25.45;9.98;;;;;;;0.31;100.00;97728.16;4481849;31;20127;-74
2021/12/06 06:12:33;;;;;;;25.75;10.48;;;;;;;0.33;100.00;97728.88;4489345;31;20100;-74
2021/12/06 06:15:00;;;;;;;24.92;10.55;;;;;;;0.35;100.00;97727.88;4488796;31;20100;-74
2021/12/06 06:17:28;;;;;;;20.90;9.32;;;;;;;0.25;100.00;97724.22;4485293;31;20118;-74
2021/12/06 06:19:58;;;;;;;26.20;10.57;;;;;;;0.25;100.00;97726.81;4486821;31;20366;-74
2021/12/06 06:22:25;;;;;;;23.90;9.80;;;;;;;0.16;100.00;97733.34;4493142;31;20104;-74
2021/12/06 06:24:52;;;;;;;24.33;9.48;;;;;;;0.28;100.00;97736.09;4488590;31;20472;-74
2021/12/06 06:27:19;;;;;;;22.83;9.82;;;;;;;0.04;100.00;97736.72;4482852;31;20088;-75
2021/12/06 06:29:46;;;;;;;20.60;9.18;;;;;;;0.14;100.00;97736.97;4481904;31;20131;-74
2021/12/06 06:32:14;;;;;;;19.25;9.27;;;;;;;0.15;100.00;97749.75;4481497;31;20113;-73
2021/12/06 06:34:41;;;;;;;25.60;8.77;;;;;;;0.07;100.00;97751.16;4490126;31;20101;-73
2021/12/06 06:37:08;;;;;;;25.90;10.20;;;;;;;0.01;100.00;97752.34;4486507;31;20149;-73
2021/12/06 06:39:36;;;;;;;29.12;10.15;;;;;;;-0.01;100.00;97764.50;4493785;31;20593;-74
2021/12/06 06:42:03;;;;;;;38.33;11.15;;;;;;;0.13;100.00;97763.62;4490303;31;20551;-74
2021/12/06 06:44:30;;;;;;;37.25;11.60;;;;;;;0.04;100.00;97775.34;4491935;31;20122;-74
2021/12/06 06:46:57;;;;;;;51.30;12.27;;;;;;;-0.01;100.00;97761.94;4491963;31;20096;-74
2021/12/06 06:49:25;;;;;;;46.40;12.27;;;;;;;0.03;100.00;97768.56;4495533;31;20092;-74
2021/12/06 06:51:52;;;;;;;46.40;11.73;;;;;;;0.12;100.00;97780.00;4495425;31;20100;-74
2021/12/06 06:54:19;;;;;;;39.53;12.45;;;;;;;0.10;100.00;97782.69;4484967;31;20123;-74
2021/12/06 06:56:46;;;;;;;31.55;11.27;;;;;;;0.12;100.00;97787.72;4489525;31;20461;-74
2021/12/06 06:59:14;;;;;;;42.35;10.68;;;;;;;0.22;100.00;97788.81;4492801;31;20108;-74
2021/12/06 07:01:41;;;;;;;50.42;12.20;;;;;;;0.17;100.00;97785.72;4482150;31;20104;-74
2021/12/06 07:04:08;;;;;;;40.80;12.75;;;;;;;0.14;100.00;97785.91;4483957;32;20144;-74
2021/12/06 07:06:36;;;;;;;39.67;12.32;;;;;;;0.19;100.00;97786.44;4482291;31;20127;-73
2021/12/06 07:09:05;;;;;;;34.83;11.30;;;;;;;0.19;100.00;97798.50;4483057;32;20575;-73
2021/12/06 07:11:32;;;;;;;36.33;12.90;;;;;;;0.27;100.00;97803.97;4488652;31;20122;-73
2021/12/06 07:13:59;;;;;;;32.90;11.20;;;;;;;0.24;100.00;97807.56;4482098;31;20484;-74
2021/12/06 07:16:29;;;;;;;44.47;12.65;;;;;;;0.29;100.00;97812.44;4485116;31;20176;-74
2021/12/06 07:18:57;;;;;;;31.77;10.07;;;;;;;0.24;100.00;97820.44;4484971;31;20152;-75
2021/12/06 07:21:43;;;;;;;47.40;13.45;;;;;;;0.24;100.00;97817.88;4488531;31;20115;-74
2021/12/06 07:24:10;;;;;;;41.60;13.98;;;;;;;0.28;100.00;97821.09;4491166;31;20155;-75
2021/12/06 07:26:37;;;;;;;37.13;11.05;;;;;;;0.31;100.00;97815.75;4486587;31;20140;-74
2021/12/06 07:29:05;;;;;;;29.30;11.80;;;;;;;0.33;100.00;97819.03;4484754;31;20504;-73
2021/12/06 07:31:32;;;;;;;26.85;10.10;;;;;;;0.17;100.00;97817.44;4483713;31;20165;-73
2021/12/06 07:33:59;;;;;;;35.22;12.32;;;;;;;0.26;100.00;97817.75;4485341;31;20108;-74
2021/12/06 07:36:29;;;;;;;36.47;13.77;;;;;;;0.17;100.00;97820.00;4486238;31;20112;-72
2021/12/06 07:38:56;;;;;;;37.30;13.40;;;;;;;0.31;100.00;97828.63;4497041;31;20120;-72
2021/12/06 07:41:28;;;;;;;45.22;12.13;;;;;;;0.32;100.00;97830.28;4497750;31;20584;-73
2021/12/06 07:43:56;;;;;;;48.47;14.80;;;;;;;0.34;100.00;97833.59;4488198;31;20100;-73
2021/12/06 07:46:24;;;;;;;40.40;13.30;;;;;;;0.33;100.00;97827.63;4485446;31;20385;-74
2021/12/06 07:48:52;;;;;;;36.58;13.07;;;;;;;0.31;100.00;97833.78;4489153;31;20116;-74
2021/12/06 07:51:21;;;;;;;30.62;9.68;;;;;;;0.29;100.00;97836.44;4487168;31;20161;-73
2021/12/06 07:53:49;;;;;;;32.47;12.25;;;;;;;0.21;100.00;97827.53;4497930;31;20213;-72
2021/12/06 07:56:16;;;;;;;27.60;11.00;;;;;;;0.34;100.00;97834.41;4497979;31;20167;-73
2021/12/06 07:58:44;;;;;;;30.73;12.05;;;;;;;0.46;100.00;97835.38;4496652;31;20475;-74
2021/12/06 08:01:11;;;;;;;35.65;14.25;;;;;;;0.35;100.00;97832.69;4486520;31;20097;-74
2021/12/06 08:03:41;;;;;;;29.98;11.95;;;;;;;0.48;100.00;97836.09;4484614;32;20076;-73
2021/12/06 08:06:09;;;;;;;27.90;12.32;;;;;;;0.49;100.00;97840.34;4485211;31;20826;-72
2021/12/06 08:08:43;;;;;;;29.60;12.10;;;;;;;0.56;100.00;97838.22;4484567;31;20119;-73
2021/12/06 08:11:13;;;;;;;;;;;;;;;0.59;100.00;97837.19;4486009;31;20529;-73
2021/12/06 08:13:44;;;;;;;22.60;9.48;;;;;;;0.69;100.00;97833.09;4485915;31;19984;-73
2021/12/06 08:16:15;;;;;;;33.28;12.57;;;;;;;0.58;100.00;97841.53;4499256;31;20088;-74
2021/12/06 08:18:44;;;;;;;29.12;9.95;;;;;;;0.58;100.00;97830.41;4489646;31;20144;-73
2021/12/06 08:21:13;;;;;;;31.17;12.25;;;;;;;0.74;100.00;97841.34;4493537;31;20790;-73
2021/12/06 08:23:41;;;;;;;32.60;13.32;;;;;;;0.75;100.00;97843.00;4489486;31;20397;-73
2021/12/06 08:26:09;;;;;;;23.77;10.73;;;;;;;0.70;100.00;97852.81;4483962;31;20103;-74
2021/12/06 08:28:37;;;;;;;22.10;11.55;;;;;;;0.59;100.00;97850.06;4489161;31;20104;-74
2021/12/06 08:31:05;;;;;;;25.67;12.27;;;;;;;0.74;100.00;97859.41;4494020;31;20091;-72
2021/12/06 08:33:34;;;;;;;30.42;11.18;;;;;;;0.73;100.00;97869.81;4497084;31;20301;-74
2021/12/06 08:36:04;;;;;;;23.40;9.75;;;;;;;0.72;100.00;97858.69;4501053;31;20096;-73
2021/12/06 08:38:33;;;;;;;28.65;12.60;;;;;;;0.79;100.00;97875.41;4489810;31;20104;-77
2021/12/06 08:41:04;;;;;;;26.23;11.00;;;;;;;0.84;100.00;97868.19;4485409;31;20123;-75
2021/12/06 08:43:31;;;;;;;28.08;11.85;;;;;;;0.73;100.00;97891.28;4497706;31;20096;-75
2021/12/06 08:46:04;;;;;;;23.67;10.10;;;;;;;0.80;100.00;97892.56;4485281;31;20135;-75
2021/12/06 08:48:35;;;;;;;23.23;10.30;;;;;;;0.83;100.00;97896.66;4485587;31;20096;-73
2021/12/06 08:51:17;;;;;;;25.20;10.68;;;;;;;0.92;100.00;97900.41;4496197;31;20163;-76
2021/12/06 08:53:45;;;;;;;35.35;11.77;;;;;;;0.86;100.00;97897.31;4498128;31;20114;-74
2021/12/06 08:56:14;;;;;;;29.90;12.98;;;;;;;0.86;100.00;97881.84;4490932;31;20175;-73
2021/12/06 08:58:42;;;;;;;28.25;12.65;;;;;;;0.95;100.00;97889.91;4492126;31;20160;-73
2021/12/06 09:01:09;;;;;;;18.75;9.18;;;;;;;1.00;100.00;97887.84;4492969;31;20113;-73
2021/12/06 09:03:57;;;;;;;27.13;13.18;;;;;;;1.04;100.00;97891.88;4492767;31;20123;-73
2021/12/06 09:06:25;;;;;;;30.90;13.68;;;;;;;1.02;100.00;97891.16;4497573;31;20084;-73
2021/12/06 09:08:54;;;;;;;23.75;11.88;;;;;;;0.98;100.00;97887.13;4497330;31;20104;-73
2021/12/06 09:11:22;;;;;;;29.20;13.38;;;;;;;1.15;100.00;97880.88;4487127;31;20104;-73
2021/12/06 09:13:49;;;;;;;26.62;11.95;;;;;;;1.21;100.00;97883.88;4486362;31;20088;-75
2021/12/06 09:16:16;;;;;;;27.77;12.65;;;;;;;1.31;100.00;97880.72;4487929;31;20092;-74
2021/12/06 09:18:45;;;;;;;25.98;12.68;;;;;;;1.29;100.00;97877.38;4487363;31;20687;-73
2021/12/06 09:21:19;;;;;;;21.08;10.02;;;;;;;1.19;100.00;97862.50;4484785;31;20139;-74
2021/12/06 09:23:46;;;;;;;28.70;12.30;;;;;;;1.32;100.00;97866.87;4491234;31;20153;-73
2021/12/06 09:26:14;;;;;;;25.30;11.63;;;;;;;1.39;100.00;97856.06;4490484;31;20115;-74
2021/12/06 09:28:41;;;;;;;25.30;11.82;;;;;;;1.58;100.00;97847.88;4489733;31;20111;-75
2021/12/06 09:31:10;;;;;;;19.08;9.73;;;;;;;1.54;100.00;97845.63;4487355;31;20088;-73
2021/12/06 09:33:38;;;;;;;24.27;11.63;;;;;;;1.42;100.00;97850.69;4487538;31;20108;-73
2021/12/06 09:36:06;;;;;;;28.58;11.68;;;;;;;1.42;100.00;97847.25;4488570;31;20088;-74
2021/12/06 09:38:38;;;;;;;22.98;10.93;;;;;;;1.36;100.00;97847.66;4488713;31;21855;-75
2021/12/06 09:41:12;;;;;;;18.42;8.95;;;;;;;1.52;100.00;97844.91;4485543;31;20130;-74
2021/12/06 09:43:41;;;;;;;25.35;11.12;;;;;;;1.53;100.00;97849.97;4482173;31;20107;-74
2021/12/06 09:46:10;;;;;;;22.48;11.25;;;;;;;1.51;100.00;97851.81;4495795;31;20084;-75
2021/12/06 09:48:40;;;;;;;24.12;12.35;;;;;;;1.59;100.00;97859.06;4491202;31;20112;-74
2021/12/06 09:51:18;;;;;;;22.40;10.95;;;;;;;1.62;100.00;97847.69;4493566;31;20168;-74
2021/12/06 09:53:47;;;;;;;22.20;10.88;;;;;;;1.57;100.00;97846.22;4492944;31;20570;-74
2021/12/06 09:56:18;;;;;;;16.37;9.15;;;;;;;1.70;100.00;97843.66;4491846;31;20126;-73
2021/12/06 09:58:45;;;;;;;20.62;10.63;;;;;;;1.62;100.00;97834.78;4491896;31;20100;-72
2021/12/06 10:01:16;;;;;;;22.08;10.15;;;;;;;1.52;100.00;97832.00;4490034;31;20122;-72
2021/12/06 10:03:47;;;;;;;19.70;10.52;;;;;;;1.38;100.00;97830.34;4490205;31;20111;-75
2021/12/06 10:06:16;;;;;;;19.05;10.40;;;;;;;1.49;100.00;97814.97;4486900;31;20145;-72
2021/12/06 10:08:45;;;;;;;20.10;10.57;;;;;;;1.58;100.00;97829.00;4494260;31;20132;-72
2021/12/06 10:11:14;;;;;;;21.77;9.52;;;;;;;1.69;100.00;97823.09;4493842;31;20138;-74
2021/12/06 10:13:42;;;;;;;21.23;10.00;;;;;;;1.75;100.00;97822.69;4490872;31;20167;-75
2021/12/06 10:16:11;;;;;;;21.20;9.93;;;;;;;1.71;100.00;97818.66;4485410;31;20104;-74
2021/12/06 10:18:39;;;;;;;18.70;9.55;;;;;;;1.76;100.00;97822.56;4487350;31;20104;-76
2021/12/06 10:21:07;;;;;;;19.37;10.38;;;;;;;1.67;100.00;97830.13;4487008;31;20104;-75
2021/12/06 10:23:38;;;;;;;21.42;10.43;;;;;;;1.71;100.00;97822.09;4495629;31;20234;-75
2021/12/06 10:26:08;;;;;;;18.75;9.38;;;;;;;1.68;100.00;97821.44;4485771;31;20072;-77
2021/12/06 10:28:39;;;;;;;21.00;11.12;;;;;;;1.68;100.00;97816.28;4488172;31;20096;-74
2021/12/06 10:31:13;;;;;;;20.48;9.88;;;;;;;1.68;100.00;97817.12;4484345;31;20148;-74
2021/12/06 10:33:46;;;;;;;19.23;9.85;;;;;;;1.68;100.00;97827.44;4487356;31;20110;-73
2021/12/06 10:36:16;;;;;;;18.33;9.38;;;;;;;1.64;100.00;97838.91;4485260;31;20163;-76
2021/12/06 10:38:49;;;;;;;16.98;8.27;;;;;;;1.59;100.00;97846.97;4488311;31;20109;-73
2021/12/06 10:41:18;;;;;;;23.10;10.15;;;;;;;1.59;100.00;97848.72;4488150;31;20167;-75
2021/12/06 10:43:52;;;;;;;16.12;8.52;;;;;;;1.71;100.00;97858.22;4492045;31;20172;-73
2021/12/06 10:46:20;;;;;;;18.65;9.90;;;;;;;1.76;100.00;97873.41;4487624;31;20097;-73
2021/12/06 10:48:48;;;;;;;19.12;10.25;;;;;;;1.83;100.00;97879.78;4486843;31;20157;-73
2021/12/06 10:51:18;;;;;;;15.05;8.43;;;;;;;1.89;100.00;97892.31;4496184;31;20453;-73
2021/12/06 10:53:59;;;;;;;17.42;8.50;;;;;;;1.94;100.00;97907.50;4488906;31;20100;-74
2021/12/06 10:56:37;;;;;;;14.52;7.20;;;;;;;2.03;100.00;97906.84;4489376;31;20111;-73
2021/12/06 10:59:20;;;;;;;14.60;7.87;;;;;;;2.19;100.00;97911.78;4489479;31;20426;-73
2021/12/06 11:01:49;;;;;;;14.80;7.35;;;;;;;2.16;100.00;97908.59;4497764;31;20141;-76
2021/12/06 11:04:19;;;;;;;14.48;7.30;;;;;;;1.68;100.00;97912.66;4497901;31;20437;-73
2021/12/06 11:06:49;;;;;;;13.57;7.55;;;;;;;1.75;100.00;97902.72;4492237;31;20093;-74
2021/12/06 11:09:21;;;;;;;15.35;7.65;;;;;;;1.77;100.00;97895.69;4483689;31;20513;-73
2021/12/06 11:11:51;;;;;;;12.77;7.18;;;;;;;1.65;100.00;97899.94;4482135;31;20115;-74
2021/12/06 11:14:25;;;;;;;15.40;7.37;;;;;;;1.71;100.00;97886.62;4488473;31;20160;-74
2021/12/06 11:16:55;;;;;;;16.95;8.73;;;;;;;1.86;100.00;97895.09;4491336;31;20100;-75
2021/12/06 11:19:25;;;;;;;14.80;7.15;;;;;;;1.98;100.00;97908.09;4489818;31;20139;-74
2021/12/06 11:21:53;;;;;;;14.02;7.85;;;;;;;2.05;100.00;97910.16;4492196;31;20105;-74
2021/12/06 11:24:26;;;;;;;16.87;8.65;;;;;;;2.30;100.00;97917.06;4485096;31;20096;-74
2021/12/06 11:26:59;;;;;;;11.77;7.03;;;;;;;2.24;100.00;97924.38;4484879;31;20157;-76
2021/12/06 11:29:42;;;;;;;18.10;8.50;;;;;;;2.42;100.00;97932.62;4484632;31;20123;-75
2021/12/06 11:32:14;;;;;;;15.32;8.80;;;;;;;2.54;100.00;97941.31;4491830;31;20153;-73
2021/12/06 11:34:49;;;;;;;18.45;8.55;;;;;;;2.51;100.00;97939.75;4481646;31;20096;-72
2021/12/06 11:37:28;;;;;;;15.75;7.50;;;;;;;2.55;100.00;97938.59;4496205;31;20628;-73
2021/12/06 11:40:18;;;;;;;14.63;8.38;;;;;;;2.47;100.00;97948.66;4486968;31;20128;-72
2021/12/06 11:43:03;;;;;;;13.43;7.57;;;;;;;2.54;100.00;97942.13;4485175;31;20157;-74
2021/12/06 11:45:48;;;;;;;14.48;8.30;;;;;;;2.33;100.00;97938.44;4485451;31;20076;-72